sensor_id;sensor_type;location;lat;lon;timestamp;pressure;altitude;pressure_sealevel;temperature;humidity
4981;BME280;2507;50.392;7.482;2023-09-19T00:02:12;100147.94;;;19.23;77.22
4981;BME280;2507;50.392;7.482;2023-09-19T00:04:37;100145.13;;;19.16;76.61
4981;BME280;2507;50.392;7.482;2023-09-19T00:07:05;100161.25;;;19.23;76.53
4981;BME280;2507;50.392;7.482;2023-09-19T00:09:30;100151.66;;;19.14;76.12
4981;BME280;2507;50.392;7.482;2023-09-19T00:11:55;100158.88;;;18.97;76.71
4981;BME280;2507;50.392;7.482;2023-09-19T00:14:20;100164.88;;;18.91;76.88
4981;BME280;2507;50.392;7.482;2023-09-19T00:16:49;100164.56;;;18.86;77.00
4981;BME280;2507;50.392;7.482;2023-09-19T00:19:15;100163.25;;;18.82;75.50
4981;BME280;2507;50.392;7.482;2023-09-19T00:21:41;100167.78;;;18.74;74.99
4981;BME280;2507;50.392;7.482;2023-09-19T00:24:07;100170.94;;;18.69;74.80
4981;BME280;2507;50.392;7.482;2023-09-19T00:26:34;100179.25;;;18.66;75.01
4981;BME280;2507;50.392;7.482;2023-09-19T00:28:59;100188.41;;;18.64;74.96
4981;BME280;2507;50.392;7.482;2023-09-19T00:31:30;100183.53;;;18.83;74.28
4981;BME280;2507;50.392;7.482;2023-09-19T00:33:55;100183.84;;;18.88;73.92
4981;BME280;2507;50.392;7.482;2023-09-19T00:36:25;100190.84;;;18.81;74.40
4981;BME280;2507;50.392;7.482;2023-09-19T00:38:50;100192.88;;;18.71;74.48
4981;BME280;2507;50.392;7.482;2023-09-19T00:41:15;100191.72;;;18.66;75.11
4981;BME280;2507;50.392;7.482;2023-09-19T00:43:41;100198.88;;;18.57;75.53
4981;BME280;2507;50.392;7.482;2023-09-19T00:46:06;100191.59;;;18.51;74.15
4981;BME280;2507;50.392;7.482;2023-09-19T00:48:40;100190.78;;;18.51;73.53
4981;BME280;2507;50.392;7.482;2023-09-19T00:51:08;100206.38;;;18.46;74.12
4981;BME280;2507;50.392;7.482;2023-09-19T00:53:33;100200.41;;;18.52;73.06
4981;BME280;2507;50.392;7.482;2023-09-19T00:55:59;100201.59;;;18.41;72.33
4981;BME280;2507;50.392;7.482;2023-09-19T00:58:25;100198.56;;;18.36;71.95
4981;BME280;2507;50.392;7.482;2023-09-19T01:00:50;100205.03;;;18.33;72.08
4981;BME280;2507;50.392;7.482;2023-09-19T01:03:17;100208.38;;;18.19;72.28
4981;BME280;2507;50.392;7.482;2023-09-19T01:05:43;100207.53;;;18.19;71.47
4981;BME280;2507;50.392;7.482;2023-09-19T01:08:09;100212.03;;;18.26;71.10
4981;BME280;2507;50.392;7.482;2023-09-19T01:10:38;100210.19;;;18.11;71.76
4981;BME280;2507;50.392;7.482;2023-09-19T01:13:29;100221.16;;;18.08;71.93
4981;BME280;2507;50.392;7.482;2023-09-19T01:16:11;100225.47;;;18.01;72.77
4981;BME280;2507;50.392;7.482;2023-09-19T01:21:26;100223.97;;;18.06;72.30
4981;BME280;2507;50.392;7.482;2023-09-19T01:29:49;100233.28;;;18.02;72.07
4981;BME280;2507;50.392;7.482;2023-09-19T01:32:17;100239.09;;;18.06;71.59
4981;BME280;2507;50.392;7.482;2023-09-19T01:34:52;100251.22;;;18.08;70.94
4981;BME280;2507;50.392;7.482;2023-09-19T01:37:18;100246.06;;;17.99;71.29
4981;BME280;2507;50.392;7.482;2023-09-19T01:39:57;100248.72;;;18.07;70.58
4981;BME280;2507;50.392;7.482;2023-09-19T01:45:54;100248.56;;;18.08;69.92
4981;BME280;2507;50.392;7.482;2023-09-19T01:50:53;100250.53;;;18.06;69.41
4981;BME280;2507;50.392;7.482;2023-09-19T01:53:28;100245.56;;;18.19;68.29
4981;BME280;2507;50.392;7.482;2023-09-19T01:55:57;100251.72;;;18.12;68.54
4981;BME280;2507;50.392;7.482;2023-09-19T02:01:11;100268.47;;;18.12;68.49
4981;BME280;2507;50.392;7.482;2023-09-19T02:03:39;100252.06;;;18.09;68.64
4981;BME280;2507;50.392;7.482;2023-09-19T02:06:06;100256.88;;;18.05;69.18
4981;BME280;2507;50.392;7.482;2023-09-19T02:08:36;100258.19;;;18.01;69.27
4981;BME280;2507;50.392;7.482;2023-09-19T02:11:01;100260.84;;;18.17;68.13
4981;BME280;2507;50.392;7.482;2023-09-19T02:13:27;100251.53;;;17.97;69.78
4981;BME280;2507;50.392;7.482;2023-09-19T02:15:53;100252.69;;;17.87;70.28
4981;BME280;2507;50.392;7.482;2023-09-19T02:18:19;100255.16;;;17.88;69.76
4981;BME280;2507;50.392;7.482;2023-09-19T02:20:44;100246.88;;;17.83;70.42
4981;BME280;2507;50.392;7.482;2023-09-19T02:23:11;100258.66;;;17.89;70.13
4981;BME280;2507;50.392;7.482;2023-09-19T02:25:59;100270.97;;;17.98;69.38
4981;BME280;2507;50.392;7.482;2023-09-19T02:28:29;100271.78;;;18.06;68.84
4981;BME280;2507;50.392;7.482;2023-09-19T02:30:55;100278.75;;;17.99;69.14
4981;BME280;2507;50.392;7.482;2023-09-19T02:33:21;100273.09;;;18.02;68.88
4981;BME280;2507;50.392;7.482;2023-09-19T02:35:47;100275.28;;;18.07;68.80
4981;BME280;2507;50.392;7.482;2023-09-19T02:38:12;100281.88;;;17.87;69.49
4981;BME280;2507;50.392;7.482;2023-09-19T02:40:38;100283.72;;;17.86;69.93
4981;BME280;2507;50.392;7.482;2023-09-19T02:43:03;100281.38;;;17.91;69.98
4981;BME280;2507;50.392;7.482;2023-09-19T02:45:30;100290.22;;;18.00;69.61
4981;BME280;2507;50.392;7.482;2023-09-19T02:47:56;100294.03;;;18.13;69.03
4981;BME280;2507;50.392;7.482;2023-09-19T02:50:22;100307.47;;;18.04;69.17
4981;BME280;2507;50.392;7.482;2023-09-19T02:52:47;100304.75;;;17.72;71.28
4981;BME280;2507;50.392;7.482;2023-09-19T02:55:17;100309.06;;;17.39;73.69
4981;BME280;2507;50.392;7.482;2023-09-19T02:57:52;100310.19;;;17.28;75.03
4981;BME280;2507;50.392;7.482;2023-09-19T03:00:20;100316.56;;;17.44;74.81
4981;BME280;2507;50.392;7.482;2023-09-19T03:02:47;100316.94;;;17.49;74.06
4981;BME280;2507;50.392;7.482;2023-09-19T03:05:12;100322.59;;;17.54;74.29
4981;BME280;2507;50.392;7.482;2023-09-19T03:07:37;100325.34;;;17.78;73.24
4981;BME280;2507;50.392;7.482;2023-09-19T03:10:04;100319.56;;;17.90;72.92
4981;BME280;2507;50.392;7.482;2023-09-19T03:12:30;100315.91;;;17.83;72.92
4981;BME280;2507;50.392;7.482;2023-09-19T03:14:56;100318.22;;;17.86;73.37
4981;BME280;2507;50.392;7.482;2023-09-19T03:17:22;100324.88;;;17.90;73.24
4981;BME280;2507;50.392;7.482;2023-09-19T03:19:47;100309.44;;;17.94;72.62
4981;BME280;2507;50.392;7.482;2023-09-19T03:22:14;100316.09;;;17.98;72.48
4981;BME280;2507;50.392;7.482;2023-09-19T03:24:39;100312.09;;;17.94;72.39
4981;BME280;2507;50.392;7.482;2023-09-19T03:27:04;100311.22;;;17.77;72.97
4981;BME280;2507;50.392;7.482;2023-09-19T03:29:30;100322.47;;;17.63;73.39
4981;BME280;2507;50.392;7.482;2023-09-19T03:31:55;100316.16;;;17.56;73.87
4981;BME280;2507;50.392;7.482;2023-09-19T03:34:20;100329.53;;;17.55;72.64
4981;BME280;2507;50.392;7.482;2023-09-19T03:36:46;100324.47;;;17.35;70.81
4981;BME280;2507;50.392;7.482;2023-09-19T03:39:11;100329.81;;;17.44;67.88
4981;BME280;2507;50.392;7.482;2023-09-19T03:41:37;100333.28;;;17.36;66.90
4981;BME280;2507;50.392;7.482;2023-09-19T03:44:02;100326.84;;;17.47;65.49
4981;BME280;2507;50.392;7.482;2023-09-19T03:46:28;100332.06;;;17.56;64.76
4981;BME280;2507;50.392;7.482;2023-09-19T03:48:53;100338.22;;;17.65;64.36
4981;BME280;2507;50.392;7.482;2023-09-19T03:51:20;100332.91;;;17.65;64.39
4981;BME280;2507;50.392;7.482;2023-09-19T03:53:45;100335.41;;;17.66;64.79
4981;BME280;2507;50.392;7.482;2023-09-19T03:56:10;100337.09;;;17.67;64.20
4981;BME280;2507;50.392;7.482;2023-09-19T03:58:36;100329.63;;;17.71;63.85
4981;BME280;2507;50.392;7.482;2023-09-19T04:01:04;100340.22;;;17.63;63.92
4981;BME280;2507;50.392;7.482;2023-09-19T04:03:31;100330.59;;;17.70;64.00
4981;BME280;2507;50.392;7.482;2023-09-19T04:06:10;100326.94;;;17.63;64.50
4981;BME280;2507;50.392;7.482;2023-09-19T04:08:35;100325.59;;;17.59;64.65
4981;BME280;2507;50.392;7.482;2023-09-19T04:11:00;100331.41;;;17.62;64.43
4981;BME280;2507;50.392;7.482;2023-09-19T04:13:26;100337.69;;;17.53;65.15
4981;BME280;2507;50.392;7.482;2023-09-19T04:15:51;100337.47;;;17.47;65.72
4981;BME280;2507;50.392;7.482;2023-09-19T04:18:16;100340.22;;;17.37;65.54
4981;BME280;2507;50.392;7.482;2023-09-19T04:20:48;100341.78;;;17.48;65.26
4981;BME280;2507;50.392;7.482;2023-09-19T04:23:13;100338.34;;;17.55;64.74
4981;BME280;2507;50.392;7.482;2023-09-19T04:25:40;100344.50;;;17.64;64.70
4981;BME280;2507;50.392;7.482;2023-09-19T04:28:06;100348.00;;;17.56;65.41
4981;BME280;2507;50.392;7.482;2023-09-19T04:30:31;100347.66;;;17.59;65.31
4981;BME280;2507;50.392;7.482;2023-09-19T04:32:56;100351.78;;;17.54;66.13
4981;BME280;2507;50.392;7.482;2023-09-19T04:35:22;100347.31;;;17.54;66.57
4981;BME280;2507;50.392;7.482;2023-09-19T04:37:47;100352.47;;;17.56;67.31
4981;BME280;2507;50.392;7.482;2023-09-19T04:40:13;100352.13;;;17.59;67.79
4981;BME280;2507;50.392;7.482;2023-09-19T04:42:43;100358.50;;;17.74;66.59
4981;BME280;2507;50.392;7.482;2023-09-19T04:45:09;100349.69;;;17.65;67.36
4981;BME280;2507;50.392;7.482;2023-09-19T04:47:35;100359.34;;;17.74;67.02
4981;BME280;2507;50.392;7.482;2023-09-19T04:50:01;100359.34;;;17.74;66.92
4981;BME280;2507;50.392;7.482;2023-09-19T04:52:26;100366.41;;;17.58;67.20
4981;BME280;2507;50.392;7.482;2023-09-19T04:54:51;100364.22;;;17.53;67.40
4981;BME280;2507;50.392;7.482;2023-09-19T04:57:16;100361.56;;;17.53;67.63
4981;BME280;2507;50.392;7.482;2023-09-19T04:59:42;100366.06;;;17.53;67.85
4981;BME280;2507;50.392;7.482;2023-09-19T05:02:07;100368.63;;;17.45;67.81
4981;BME280;2507;50.392;7.482;2023-09-19T05:04:35;100369.72;;;17.60;67.76
4981;BME280;2507;50.392;7.482;2023-09-19T05:07:00;100359.81;;;17.70;67.42
4981;BME280;2507;50.392;7.482;2023-09-19T05:09:28;100360.31;;;17.65;67.16
4981;BME280;2507;50.392;7.482;2023-09-19T05:11:54;100361.44;;;17.63;67.30
4981;BME280;2507;50.392;7.482;2023-09-19T05:14:19;100361.56;;;17.53;67.55
4981;BME280;2507;50.392;7.482;2023-09-19T05:16:45;100359.81;;;17.44;67.80
4981;BME280;2507;50.392;7.482;2023-09-19T05:19:10;100359.97;;;17.43;68.67
4981;BME280;2507;50.392;7.482;2023-09-19T05:21:37;100362.81;;;17.41;68.67
4981;BME280;2507;50.392;7.482;2023-09-19T05:24:05;100370.97;;;17.48;68.26
4981;BME280;2507;50.392;7.482;2023-09-19T05:26:31;100363.91;;;17.56;67.88
4981;BME280;2507;50.392;7.482;2023-09-19T05:28:57;100363.75;;;17.58;67.44
4981;BME280;2507;50.392;7.482;2023-09-19T05:31:22;100375.56;;;17.46;68.03
4981;BME280;2507;50.392;7.482;2023-09-19T05:33:48;100373.94;;;17.45;68.15
4981;BME280;2507;50.392;7.482;2023-09-19T05:36:14;100392.44;;;17.36;68.34
4981;BME280;2507;50.392;7.482;2023-09-19T05:38:42;100373.75;;;17.38;67.59
4981;BME280;2507;50.392;7.482;2023-09-19T05:41:07;100370.94;;;17.40;67.34
4981;BME280;2507;50.392;7.482;2023-09-19T05:43:34;100376.41;;;17.38;66.62
4981;BME280;2507;50.392;7.482;2023-09-19T05:46:02;100377.97;;;17.49;66.81
4981;BME280;2507;50.392;7.482;2023-09-19T05:48:28;100381.88;;;17.45;66.87
4981;BME280;2507;50.392;7.482;2023-09-19T05:50:53;100383.47;;;17.55;66.19
4981;BME280;2507;50.392;7.482;2023-09-19T05:53:18;100393.34;;;17.71;65.49
4981;BME280;2507;50.392;7.482;2023-09-19T05:55:44;100393.63;;;17.60;66.00
4981;BME280;2507;50.392;7.482;2023-09-19T05:58:10;100409.25;;;17.71;65.36
4981;BME280;2507;50.392;7.482;2023-09-19T06:00:39;100421.53;;;17.72;64.82
4981;BME280;2507;50.392;7.482;2023-09-19T06:03:05;100418.28;;;17.86;64.07
4981;BME280;2507;50.392;7.482;2023-09-19T06:05:31;100412.00;;;17.95;63.93
4981;BME280;2507;50.392;7.482;2023-09-19T06:07:57;100426.97;;;18.04;63.42
4981;BME280;2507;50.392;7.482;2023-09-19T06:10:25;100432.66;;;18.09;63.50
4981;BME280;2507;50.392;7.482;2023-09-19T06:12:51;100440.13;;;18.13;63.52
4981;BME280;2507;50.392;7.482;2023-09-19T06:15:16;100436.03;;;18.27;62.27
4981;BME280;2507;50.392;7.482;2023-09-19T06:17:48;100444.25;;;18.42;61.83
4981;BME280;2507;50.392;7.482;2023-09-19T06:20:13;100439.38;;;18.37;61.90
4981;BME280;2507;50.392;7.482;2023-09-19T06:22:40;100433.44;;;18.51;60.43
4981;BME280;2507;50.392;7.482;2023-09-19T06:25:07;100434.44;;;18.50;60.77
4981;BME280;2507;50.392;7.482;2023-09-19T06:27:32;100439.97;;;18.65;59.90
4981;BME280;2507;50.392;7.482;2023-09-19T06:29:57;100442.78;;;18.63;60.00
4981;BME280;2507;50.392;7.482;2023-09-19T06:32:27;100447.59;;;18.60;60.06
4981;BME280;2507;50.392;7.482;2023-09-19T06:34:52;100454.91;;;18.66;60.05
4981;BME280;2507;50.392;7.482;2023-09-19T06:37:20;100459.44;;;18.81;58.97
4981;BME280;2507;50.392;7.482;2023-09-19T06:39:46;100448.78;;;18.81;58.87
4981;BME280;2507;50.392;7.482;2023-09-19T06:42:13;100448.78;;;18.65;58.69
4981;BME280;2507;50.392;7.482;2023-09-19T06:44:38;100452.91;;;18.60;59.17
4981;BME280;2507;50.392;7.482;2023-09-19T06:47:04;100466.41;;;18.74;58.84
4981;BME280;2507;50.392;7.482;2023-09-19T06:49:30;100470.75;;;18.83;58.67
4981;BME280;2507;50.392;7.482;2023-09-19T06:51:55;100483.69;;;18.86;57.82
4981;BME280;2507;50.392;7.482;2023-09-19T06:54:22;100482.69;;;18.87;57.39
4981;BME280;2507;50.392;7.482;2023-09-19T06:56:47;100487.19;;;19.03;57.25
4981;BME280;2507;50.392;7.482;2023-09-19T06:59:13;100492.19;;;19.06;56.49
4981;BME280;2507;50.392;7.482;2023-09-19T07:01:39;100493.38;;;19.03;56.10
4981;BME280;2507;50.392;7.482;2023-09-19T07:04:05;100497.34;;;18.99;56.22
4981;BME280;2507;50.392;7.482;2023-09-19T07:06:30;100495.16;;;19.11;55.66
4981;BME280;2507;50.392;7.482;2023-09-19T07:08:55;100502.00;;;19.21;55.65
4981;BME280;2507;50.392;7.482;2023-09-19T07:11:21;100503.84;;;19.29;55.01
4981;BME280;2507;50.392;7.482;2023-09-19T07:13:48;100505.69;;;19.37;55.06
4981;BME280;2507;50.392;7.482;2023-09-19T07:16:13;100497.34;;;19.15;55.12
4981;BME280;2507;50.392;7.482;2023-09-19T07:18:52;100507.53;;;19.36;54.77
4981;BME280;2507;50.392;7.482;2023-09-19T07:21:17;100511.69;;;19.47;54.41
4981;BME280;2507;50.392;7.482;2023-09-19T07:23:42;100518.31;;;19.67;54.33
4981;BME280;2507;50.392;7.482;2023-09-19T07:26:08;100519.03;;;20.07;53.47
4981;BME280;2507;50.392;7.482;2023-09-19T07:28:33;100522.88;;;20.60;52.28
4981;BME280;2507;50.392;7.482;2023-09-19T07:31:02;100520.22;;;20.82;51.45
4981;BME280;2507;50.392;7.482;2023-09-19T07:33:28;100518.38;;;21.13;50.75
4981;BME280;2507;50.392;7.482;2023-09-19T07:35:53;100528.25;;;21.27;49.44
4981;BME280;2507;50.392;7.482;2023-09-19T07:38:19;100534.94;;;21.09;49.81
4981;BME280;2507;50.392;7.482;2023-09-19T07:40:44;100528.09;;;21.06;49.20
4981;BME280;2507;50.392;7.482;2023-09-19T07:43:09;100514.81;;;21.21;49.46
4981;BME280;2507;50.392;7.482;2023-09-19T07:45:35;100533.03;;;21.55;48.73
4981;BME280;2507;50.392;7.482;2023-09-19T07:48:01;100518.03;;;21.91;47.92
4981;BME280;2507;50.392;7.482;2023-09-19T07:50:29;100523.47;;;22.26;46.75
4981;BME280;2507;50.392;7.482;2023-09-19T07:52:55;100528.53;;;22.07;47.07
4981;BME280;2507;50.392;7.482;2023-09-19T07:55:21;100525.69;;;22.08;46.15
4981;BME280;2507;50.392;7.482;2023-09-19T07:57:50;100507.84;;;21.72;47.21
4981;BME280;2507;50.392;7.482;2023-09-19T08:00:15;100511.13;;;21.82;47.29
4981;BME280;2507;50.392;7.482;2023-09-19T08:02:41;100515.00;;;21.71;46.71
4981;BME280;2507;50.392;7.482;2023-09-19T08:05:08;100518.00;;;21.39;47.24
4981;BME280;2507;50.392;7.482;2023-09-19T08:07:41;100518.50;;;20.89;48.15
4981;BME280;2507;50.392;7.482;2023-09-19T08:10:07;100519.63;;;20.95;48.68
4981;BME280;2507;50.392;7.482;2023-09-19T08:12:34;100518.56;;;20.81;49.06
4981;BME280;2507;50.392;7.482;2023-09-19T08:15:04;100526.38;;;20.83;49.42
4981;BME280;2507;50.392;7.482;2023-09-19T08:17:34;100529.72;;;20.85;49.16
4981;BME280;2507;50.392;7.482;2023-09-19T08:19:59;100533.44;;;20.76;49.05
4981;BME280;2507;50.392;7.482;2023-09-19T08:22:25;100541.84;;;20.65;48.76
4981;BME280;2507;50.392;7.482;2023-09-19T08:24:50;100542.00;;;20.63;49.65
4981;BME280;2507;50.392;7.482;2023-09-19T08:27:15;100539.72;;;20.83;49.34
4981;BME280;2507;50.392;7.482;2023-09-19T08:29:43;100543.63;;;20.72;49.29
4981;BME280;2507;50.392;7.482;2023-09-19T08:32:09;100544.75;;;20.47;49.54
4981;BME280;2507;50.392;7.482;2023-09-19T08:34:34;100551.56;;;20.50;50.26
4981;BME280;2507;50.392;7.482;2023-09-19T08:37:03;100559.00;;;20.62;50.61
4981;BME280;2507;50.392;7.482;2023-09-19T08:39:28;100557.88;;;20.87;50.28
4981;BME280;2507;50.392;7.482;2023-09-19T08:41:59;100560.78;;;20.78;49.72
4981;BME280;2507;50.392;7.482;2023-09-19T08:44:25;100558.59;;;20.81;49.97
4981;BME280;2507;50.392;7.482;2023-09-19T08:46:54;100565.25;;;20.85;49.69
4981;BME280;2507;50.392;7.482;2023-09-19T08:49:27;100561.19;;;20.89;49.67
4981;BME280;2507;50.392;7.482;2023-09-19T08:52:05;100558.38;;;21.21;49.41
4981;BME280;2507;50.392;7.482;2023-09-19T08:54:37;100564.69;;;21.20;48.88
4981;BME280;2507;50.392;7.482;2023-09-19T08:57:07;100571.66;;;20.99;48.74
4981;BME280;2507;50.392;7.482;2023-09-19T08:59:39;100568.50;;;20.95;48.66
4981;BME280;2507;50.392;7.482;2023-09-19T09:02:11;100563.81;;;21.05;48.48
4981;BME280;2507;50.392;7.482;2023-09-19T09:04:39;100568.53;;;20.87;48.67
4981;BME280;2507;50.392;7.482;2023-09-19T09:07:09;100572.19;;;20.94;48.57
4981;BME280;2507;50.392;7.482;2023-09-19T09:09:35;100582.50;;;21.05;48.84
4981;BME280;2507;50.392;7.482;2023-09-19T09:12:02;100565.44;;;21.14;48.91
4981;BME280;2507;50.392;7.482;2023-09-19T09:14:28;100576.16;;;21.29;47.68
4981;BME280;2507;50.392;7.482;2023-09-19T09:16:55;100580.47;;;21.07;47.63
4981;BME280;2507;50.392;7.482;2023-09-19T09:19:23;100578.91;;;21.13;47.92
4981;BME280;2507;50.392;7.482;2023-09-19T09:21:51;100576.16;;;20.98;48.82
4981;BME280;2507;50.392;7.482;2023-09-19T09:24:26;100570.97;;;21.50;48.92
4981;BME280;2507;50.392;7.482;2023-09-19T09:26:53;100565.31;;;22.05;47.30
4981;BME280;2507;50.392;7.482;2023-09-19T09:29:40;100564.56;;;22.25;45.91
4981;BME280;2507;50.392;7.482;2023-09-19T09:32:26;100569.28;;;21.94;45.87
4981;BME280;2507;50.392;7.482;2023-09-19T09:34:56;100566.97;;;22.06;46.57
4981;BME280;2507;50.392;7.482;2023-09-19T09:37:22;100571.31;;;22.36;45.76
4981;BME280;2507;50.392;7.482;2023-09-19T09:39:56;100574.75;;;22.59;45.65
4981;BME280;2507;50.392;7.482;2023-09-19T09:42:30;100571.78;;;22.69;44.43
4981;BME280;2507;50.392;7.482;2023-09-19T09:45:16;100568.25;;;22.54;44.56
4981;BME280;2507;50.392;7.482;2023-09-19T09:47:44;100568.66;;;22.51;44.58
4981;BME280;2507;50.392;7.482;2023-09-19T09:50:32;100571.22;;;22.73;44.15
4981;BME280;2507;50.392;7.482;2023-09-19T09:53:20;100574.91;;;22.43;44.91
4981;BME280;2507;50.392;7.482;2023-09-19T09:56:06;100571.41;;;22.13;46.13
4981;BME280;2507;50.392;7.482;2023-09-19T09:58:35;100558.59;;;22.23;46.62
4981;BME280;2507;50.392;7.482;2023-09-19T10:01:02;100562.66;;;22.19;46.51
4981;BME280;2507;50.392;7.482;2023-09-19T10:03:38;100567.91;;;22.27;45.91
4981;BME280;2507;50.392;7.482;2023-09-19T10:06:06;100555.16;;;22.44;44.99
4981;BME280;2507;50.392;7.482;2023-09-19T10:11:26;100559.97;;;22.34;44.94
4981;BME280;2507;50.392;7.482;2023-09-19T10:13:55;100558.88;;;22.43;45.04
4981;BME280;2507;50.392;7.482;2023-09-19T10:16:21;100562.66;;;22.49;44.67
4981;BME280;2507;50.392;7.482;2023-09-19T10:18:50;100549.19;;;22.57;42.91
4981;BME280;2507;50.392;7.482;2023-09-19T10:21:17;100552.50;;;22.44;44.02
4981;BME280;2507;50.392;7.482;2023-09-19T10:23:48;100547.78;;;22.46;44.03
4981;BME280;2507;50.392;7.482;2023-09-19T10:26:17;100541.44;;;22.62;43.88
4981;BME280;2507;50.392;7.482;2023-09-19T10:28:46;100539.13;;;22.44;43.30
4981;BME280;2507;50.392;7.482;2023-09-19T10:31:19;100539.03;;;22.38;44.07
4981;BME280;2507;50.392;7.482;2023-09-19T10:33:47;100541.81;;;22.29;44.14
4981;BME280;2507;50.392;7.482;2023-09-19T10:36:15;100540.50;;;21.96;44.46
4981;BME280;2507;50.392;7.482;2023-09-19T10:38:43;100531.94;;;21.86;44.67
4981;BME280;2507;50.392;7.482;2023-09-19T10:41:14;100538.41;;;21.92;44.52
4981;BME280;2507;50.392;7.482;2023-09-19T10:43:42;100546.22;;;22.08;44.78
4981;BME280;2507;50.392;7.482;2023-09-19T10:46:11;100545.38;;;21.93;44.32
4981;BME280;2507;50.392;7.482;2023-09-19T10:48:38;100538.13;;;22.16;44.46
4981;BME280;2507;50.392;7.482;2023-09-19T10:51:33;100539.69;;;22.40;43.26
4981;BME280;2507;50.392;7.482;2023-09-19T10:54:13;100541.34;;;22.55;42.67
4981;BME280;2507;50.392;7.482;2023-09-19T10:56:48;100542.25;;;22.62;43.35
4981;BME280;2507;50.392;7.482;2023-09-19T10:59:17;100527.03;;;22.48;42.27
4981;BME280;2507;50.392;7.482;2023-09-19T11:04:21;100541.72;;;22.23;43.07
4981;BME280;2507;50.392;7.482;2023-09-19T11:12:12;100544.47;;;22.59;42.98
4981;BME280;2507;50.392;7.482;2023-09-19T11:14:39;100532.47;;;22.40;42.86
4981;BME280;2507;50.392;7.482;2023-09-19T11:30:50;100527.69;;;22.65;41.47
4981;BME280;2507;50.392;7.482;2023-09-19T11:33:28;100522.78;;;22.54;41.28
4981;BME280;2507;50.392;7.482;2023-09-19T11:43:54;100537.22;;;22.09;42.30
4981;BME280;2507;50.392;7.482;2023-09-19T11:49:16;100517.81;;;21.78;42.42
4981;BME280;2507;50.392;7.482;2023-09-19T11:51:45;100518.31;;;21.96;42.87
4981;BME280;2507;50.392;7.482;2023-09-19T11:54:13;100509.44;;;22.24;42.92
4981;BME280;2507;50.392;7.482;2023-09-19T11:56:49;100525.41;;;22.33;42.58
4981;BME280;2507;50.392;7.482;2023-09-19T11:59:20;100505.63;;;22.48;42.19
4981;BME280;2507;50.392;7.482;2023-09-19T12:02:05;100501.88;;;22.78;42.02
4981;BME280;2507;50.392;7.482;2023-09-19T12:04:35;100514.50;;;22.84;41.95
4981;BME280;2507;50.392;7.482;2023-09-19T12:07:05;100511.72;;;22.92;40.74
4981;BME280;2507;50.392;7.482;2023-09-19T12:09:36;100508.91;;;23.00;41.20
4981;BME280;2507;50.392;7.482;2023-09-19T12:12:01;100509.72;;;23.22;40.24
4981;BME280;2507;50.392;7.482;2023-09-19T12:14:26;100501.66;;;23.15;39.96
4981;BME280;2507;50.392;7.482;2023-09-19T12:16:54;100502.69;;;23.14;40.29
4981;BME280;2507;50.392;7.482;2023-09-19T12:19:21;100518.13;;;23.34;40.39
4981;BME280;2507;50.392;7.482;2023-09-19T12:21:56;100511.03;;;23.47;40.08
4981;BME280;2507;50.392;7.482;2023-09-19T12:24:23;100508.00;;;23.57;39.54
4981;BME280;2507;50.392;7.482;2023-09-19T12:26:51;100512.69;;;23.48;39.62
4981;BME280;2507;50.392;7.482;2023-09-19T12:29:18;100522.31;;;23.21;39.87
4981;BME280;2507;50.392;7.482;2023-09-19T12:31:48;100511.53;;;23.15;40.06
4981;BME280;2507;50.392;7.482;2023-09-19T12:34:20;100500.00;;;23.36;40.13
4981;BME280;2507;50.392;7.482;2023-09-19T12:36:46;100511.84;;;23.48;39.48
4981;BME280;2507;50.392;7.482;2023-09-19T12:39:22;100504.94;;;23.60;39.33
4981;BME280;2507;50.392;7.482;2023-09-19T12:41:48;100504.00;;;23.67;39.22
4981;BME280;2507;50.392;7.482;2023-09-19T12:44:15;100499.28;;;23.76;39.51
4981;BME280;2507;50.392;7.482;2023-09-19T12:46:43;100495.03;;;23.60;39.74
4981;BME280;2507;50.392;7.482;2023-09-19T12:49:19;100498.31;;;23.56;40.13
4981;BME280;2507;50.392;7.482;2023-09-19T12:51:48;100489.34;;;23.42;40.23
4981;BME280;2507;50.392;7.482;2023-09-19T12:54:13;100496.28;;;23.37;40.50
4981;BME280;2507;50.392;7.482;2023-09-19T12:56:43;100485.84;;;23.42;40.82
4981;BME280;2507;50.392;7.482;2023-09-19T12:59:14;100472.81;;;23.39;41.38
4981;BME280;2507;50.392;7.482;2023-09-19T13:01:41;100481.25;;;23.36;41.02
4981;BME280;2507;50.392;7.482;2023-09-19T13:04:20;100476.34;;;23.39;40.13
4981;BME280;2507;50.392;7.482;2023-09-19T13:06:46;100474.97;;;23.50;40.90
4981;BME280;2507;50.392;7.482;2023-09-19T13:09:14;100470.59;;;23.70;40.65
4981;BME280;2507;50.392;7.482;2023-09-19T13:11:40;100475.53;;;23.73;39.46
4981;BME280;2507;50.392;7.482;2023-09-19T13:14:25;100481.25;;;23.91;40.39
4981;BME280;2507;50.392;7.482;2023-09-19T13:17:05;100476.44;;;24.14;38.86
4981;BME280;2507;50.392;7.482;2023-09-19T13:19:49;100462.09;;;24.35;38.56
4981;BME280;2507;50.392;7.482;2023-09-19T13:22:43;100465.38;;;24.30;38.96
4981;BME280;2507;50.392;7.482;2023-09-19T13:25:18;100456.75;;;24.41;38.91
4981;BME280;2507;50.392;7.482;2023-09-19T13:27:47;100457.56;;;24.42;38.72
4981;BME280;2507;50.392;7.482;2023-09-19T13:30:16;100464.44;;;24.57;39.02
4981;BME280;2507;50.392;7.482;2023-09-19T13:32:41;100443.13;;;24.49;38.32
4981;BME280;2507;50.392;7.482;2023-09-19T13:35:08;100451.56;;;23.99;38.88
4981;BME280;2507;50.392;7.482;2023-09-19T13:37:38;100451.06;;;23.82;38.90
4981;BME280;2507;50.392;7.482;2023-09-19T13:40:10;100452.84;;;23.69;38.73
4981;BME280;2507;50.392;7.482;2023-09-19T13:42:36;100448.56;;;23.74;39.03
4981;BME280;2507;50.392;7.482;2023-09-19T13:45:02;100466.53;;;23.80;39.27
4981;BME280;2507;50.392;7.482;2023-09-19T13:47:29;100467.44;;;23.94;39.57
4981;BME280;2507;50.392;7.482;2023-09-19T13:49:54;100460.34;;;24.14;38.65
4981;BME280;2507;50.392;7.482;2023-09-19T13:52:20;100459.81;;;23.97;39.24
4981;BME280;2507;50.392;7.482;2023-09-19T13:54:46;100444.19;;;24.01;38.65
4981;BME280;2507;50.392;7.482;2023-09-19T13:57:12;100447.63;;;23.95;38.79
4981;BME280;2507;50.392;7.482;2023-09-19T13:59:37;100436.41;;;23.78;38.50
4981;BME280;2507;50.392;7.482;2023-09-19T14:02:03;100436.91;;;23.61;38.78
4981;BME280;2507;50.392;7.482;2023-09-19T14:04:28;100433.69;;;23.72;39.01
4981;BME280;2507;50.392;7.482;2023-09-19T14:06:54;100425.50;;;23.80;38.79
4981;BME280;2507;50.392;7.482;2023-09-19T14:09:19;100430.38;;;23.70;38.49